Newell, SD

1:38 PM MDT on October 25, 2014 (GMT -0600)
RAWS FORT MEAD QD #2 SD US | Change Station
CLOSE
Current Station
Personal Weather Station
Location: Fort Meade, SD
Elevation: 3450 ft
Nearby Weather Stations

Elev 3450 ft 44.40 °N, 103.47 °W | Updated 57 minutes ago

Clear
Clear
67 °F
Feels Like 67 °F
N
14
Wind Variable Wind from ESE
Gusts 19.0 mph

Today
High -- | Low -- °F
--% Chance of Precip.
Yesterday
High -- | Low -- °F
Precip. -- in
7:22 AM 5:52 PM
Waxing Crescent, 4% visible
Pressure 30.06 in
Visibility 10.0 miles
Clouds Clear
Dew Point 35 °F
Humidity 30%
Rainfall 0.00 in
Snow Depth Not available.
UV 4 out of 12
Pollen 2.10 out of 12
Air Quality Not available.
Flu Activity Sporadic
METAR KSPF 251915Z AUTO 03003KT 10SM CLR 18/03 A3006 RMK AO2

More Conditions Fewer Conditions

Pressure 30.06 in
Visibility 10.0 miles
Clouds Clear
Dew Point 35 °F
Humidity 30%
Rainfall 0.00 in
Snow Depth Not available.
UV 4 out of 12
Pollen 2.10 out of 12
Air Quality Not available.
Flu Activity Sporadic
METAR KSPF 251915Z AUTO 03003KT 10SM CLR 18/03 A3006 RMK AO2

More Conditions Fewer Conditions

10-Day Weather Forecast

Almanac

Astronomy

Oct. 25, 2014 Rise Set
Actual Time 7:22 AM MDT 5:52 PM MDT
Civil Twilight 6:52 AM MDT 6:22 PM MDT
Nautical Twilight 6:18 AM MDT 6:56 PM MDT
Astronomical Twilight 5:44 AM MDT 7:30 PM MDT
Moon 9:06 AM MDT 7:13 PM MDT
Length of Visible Light 11h 30m
Length of Day
10h 30m
Tomorrow will be 2m 52s shorter.
Waxing Crescent, 4% of the Moon is Illuminated
Today
Waxing Crescent
Oct 30
First Quarter
Nov 6
Full
Nov 14
Last Quarter
Nov 22
New

Today's Extremes

State Highs State Lows

Community

WunderPhotos

Upload Photos

1,764,971 photos uploaded!

Nearby

Snow Depth

Station Depth Elevation
North Rapid Creek 0 in 6130 ft

Earthquake Activity

City Distance Mag. Time & Date
No recent earthquake activity has been reported nearby.
Minimum magnitude displayed is 2.5.

Coastal Water Temperatures

Place Temperature
No Stations Reporting

Nearby Weather Stations